Time;durP1;ratioP1;P1;durP2;ratioP2;P2;SDS_P1;SDS_P2;PMS_P1;PMS_P2;Temp;Humidity;BMP_temperature;BMP_pressure;BME280_temperature;BME280_humidity;BME280_pressure;Samples;Min_cycle;Max_cycle;Signal;HPM_P1;HPM_P2
2020/12/02 00:02:09;;;;;;;46.37;30.50;;;;;;;-144.99;100.00;52484.78;5059451;28;21028;-72
2020/12/02 00:04:36;;;;;;;48.13;31.83;;;;;;;-144.99;100.00;52525.56;5056521;28;20686;-72
2020/12/02 00:07:02;;;;;;;44.63;28.23;;;;;;;-144.99;100.00;52505.16;5060506;28;21031;-72
2020/12/02 00:09:29;;;;;;;48.47;29.10;;;;;;;-144.99;100.00;52511.28;5054171;28;20706;-72
2020/12/02 00:11:55;;;;;;;47.03;33.63;;;;;;;-144.99;100.00;52497.00;5056164;28;21186;-73
2020/12/02 00:14:25;;;;;;;44.93;29.90;;;;;;;-144.99;100.00;52539.81;5055545;28;20995;-74
2020/12/02 00:16:51;;;;;;;46.03;30.70;;;;;;;-144.99;100.00;52452.16;5055184;28;20679;-72
2020/12/02 00:19:18;;;;;;;51.47;33.50;;;;;;;-144.99;100.00;52472.56;5056381;28;20611;-72
2020/12/02 00:21:59;;;;;;;46.57;35.13;;;;;;;-144.99;100.00;52517.41;5047970;28;20739;-74
2020/12/02 00:24:26;;;;;;;49.10;31.33;;;;;;;-144.99;100.00;52558.16;5048804;28;20685;-72
2020/12/02 00:26:53;;;;;;;39.57;28.27;;;;;;;-144.99;100.00;52507.19;5049356;28;20739;-72
2020/12/02 00:29:19;;;;;;;45.77;30.20;;;;;;;-144.99;100.00;52507.19;5057820;28;20685;-72
2020/12/02 00:31:46;;;;;;;47.50;34.13;;;;;;;-144.99;100.00;52521.47;5047782;28;20928;-72
2020/12/02 00:34:12;;;;;;;45.60;30.93;;;;;;;-144.99;100.00;52456.25;5054750;28;20628;-75
2020/12/02 00:36:38;;;;;;;48.33;32.13;;;;;;;-144.99;100.00;52484.78;5056381;28;21276;-72
2020/12/02 00:39:05;;;;;;;51.87;31.73;;;;;;;-144.99;100.00;52499.06;5058378;28;20698;-72
2020/12/02 00:41:31;;;;;;;47.33;30.47;;;;;;;-144.99;100.00;52497.00;5060508;28;20659;-72
2020/12/02 00:43:58;;;;;;;52.47;31.33;;;;;;;-144.99;100.00;52501.09;5055220;28;20675;-72
2020/12/02 00:46:24;;;;;;;43.87;28.07;;;;;;;-144.99;100.00;52497.00;5058150;28;20679;-73
2020/12/02 00:48:52;;;;;;;46.80;32.60;;;;;;;-144.99;100.00;52511.28;5054811;28;20685;-73
2020/12/02 00:51:19;;;;;;;57.03;31.13;;;;;;;-144.99;100.00;52525.56;5053340;28;20647;-73
2020/12/02 00:53:45;;;;;;;46.03;30.17;;;;;;;-144.99;100.00;52517.41;5055029;28;20761;-74
2020/12/02 00:56:13;;;;;;;47.87;30.00;;;;;;;-144.99;100.00;52492.94;5064243;28;20739;-73
2020/12/02 00:58:45;;;;;;;49.07;32.57;;;;;;;-144.99;100.00;52492.94;5062253;28;20712;-73
2020/12/02 01:01:14;;;;;;;50.93;31.53;;;;;;;-144.99;100.00;52505.16;5056326;28;20642;-73
2020/12/02 01:03:41;;;;;;;52.33;32.47;;;;;;;-144.99;100.00;52533.69;5050423;28;20685;-74
2020/12/02 01:06:11;;;;;;;44.87;32.00;;;;;;;-144.99;100.00;52525.56;5059705;28;20674;-72
2020/12/02 01:08:39;;;;;;;45.73;32.37;;;;;;;-144.99;100.00;52505.16;5059462;28;20631;-73
2020/12/02 01:11:10;;;;;;;50.20;32.27;;;;;;;-144.99;100.00;52486.81;5047607;28;20636;-73
2020/12/02 01:13:38;;;;;;;51.40;32.40;;;;;;;-144.99;100.00;52509.25;5052750;28;20671;-73
2020/12/02 01:16:07;;;;;;;51.70;34.77;;;;;;;-144.99;100.00;52533.69;5051337;28;20608;-73
2020/12/02 01:18:34;;;;;;;48.63;30.27;;;;;;;-144.99;100.00;52480.72;5059004;28;21355;-74
2020/12/02 01:21:15;;;;;;;45.30;31.17;;;;;;;-144.99;100.00;52537.78;5065131;28;21095;-74
2020/12/02 01:23:44;;;;;;;48.10;30.80;;;;;;;-144.99;100.00;52482.75;5054177;28;20682;-75
2020/12/02 01:26:10;;;;;;;48.93;32.00;;;;;;;-144.99;100.00;52537.78;5055419;28;20630;-76
2020/12/02 01:28:37;;;;;;;47.73;30.57;;;;;;;-144.99;100.00;52488.84;5058377;28;20702;-77
2020/12/02 01:31:05;;;;;;;54.20;33.43;;;;;;;-144.99;100.00;52505.16;5056986;28;20669;-77
2020/12/02 01:33:32;;;;;;;48.27;33.33;;;;;;;-144.99;100.00;52525.56;5055152;28;20650;-77
2020/12/02 01:35:59;;;;;;;45.80;33.07;;;;;;;-144.99;100.00;52558.16;5068000;28;20711;-76
2020/12/02 01:38:30;;;;;;;52.30;34.87;;;;;;;-144.99;100.00;52554.09;5056280;28;21123;-76
2020/12/02 01:40:57;;;;;;;42.43;28.73;;;;;;;-144.99;100.00;52497.00;5050628;28;20628;-73
2020/12/02 01:43:25;;;;;;;48.33;35.33;;;;;;;-144.99;100.00;52517.41;5058923;28;21222;-73
2020/12/02 01:45:55;;;;;;;39.73;28.37;;;;;;;-144.99;100.00;52494.97;5051643;28;20638;-74
2020/12/02 01:48:51;;;;;;;50.73;32.90;;;;;;;-144.99;100.00;52533.69;5051184;28;20643;-74
2020/12/02 01:51:33;;;;;;;43.43;30.73;;;;;;;-144.99;100.00;52480.72;5057108;28;20715;-74
2020/12/02 01:54:04;;;;;;;47.53;30.67;;;;;;;-144.99;100.00;52523.50;5059202;28;20612;-74
2020/12/02 01:56:36;;;;;;;45.67;30.40;;;;;;;-144.99;100.00;52492.94;5057156;28;20703;-74
2020/12/02 01:59:19;;;;;;;50.67;35.93;;;;;;;-144.99;100.00;52545.94;5059544;28;20659;-75
2020/12/02 02:01:57;;;;;;;47.70;31.27;;;;;;;-144.99;100.00;52478.66;5058346;28;20673;-74
2020/12/02 02:04:33;;;;;;;46.33;30.90;;;;;;;-144.99;100.00;52494.97;5053948;28;20627;-73
2020/12/02 02:07:10;;;;;;;48.43;34.13;;;;;;;-144.99;100.00;52558.16;5058967;28;21794;-74
2020/12/02 02:09:37;;;;;;;44.33;30.87;;;;;;;-144.99;100.00;52480.72;5051047;28;20654;-74
2020/12/02 02:12:30;;;;;;;49.10;31.63;;;;;;;-144.99;100.00;52505.16;5057122;28;20656;-74
2020/12/02 02:15:09;;;;;;;47.17;31.63;;;;;;;-144.99;100.00;52497.00;5046355;28;20719;-72
2020/12/02 02:17:35;;;;;;;57.27;36.33;;;;;;;-144.99;100.00;52503.13;5050211;28;20691;-72
2020/12/02 02:20:01;;;;;;;46.47;32.50;;;;;;;-144.99;100.00;52476.63;5059411;28;20628;-72
2020/12/02 02:22:28;;;;;;;45.23;31.47;;;;;;;-144.99;100.00;52505.16;5049409;28;21055;-72
2020/12/02 02:24:56;;;;;;;50.23;32.97;;;;;;;-144.99;100.00;52505.16;5056842;28;20644;-71
2020/12/02 02:27:25;;;;;;;45.20;29.80;;;;;;;-144.99;100.00;52507.19;5060878;28;20667;-72
2020/12/02 02:29:52;;;;;;;49.43;32.23;;;;;;;-144.99;100.00;52521.47;5058275;28;20623;-71
2020/12/02 02:32:22;;;;;;;53.73;32.47;;;;;;;-144.99;100.00;52507.19;5055754;28;20615;-71
2020/12/02 02:34:52;;;;;;;43.40;33.90;;;;;;;-144.99;100.00;52513.31;5051052;28;20651;-72
2020/12/02 02:37:20;;;;;;;46.27;31.63;;;;;;;-144.99;100.00;52509.25;5056868;28;20697;-71
2020/12/02 02:39:47;;;;;;;53.53;34.43;;;;;;;-144.99;100.00;52509.25;5054697;28;21262;-71
2020/12/02 02:42:28;;;;;;;42.17;31.53;;;;;;;-144.99;100.00;52517.41;5052405;28;20729;-71
2020/12/02 02:44:55;;;;;;;43.13;32.20;;;;;;;-144.99;100.00;52513.31;5040952;28;20632;-71
2020/12/02 02:47:21;;;;;;;48.30;34.77;;;;;;;-144.99;100.00;52529.63;5055732;28;20667;-71
2020/12/02 02:49:47;;;;;;;48.80;30.83;;;;;;;-144.99;100.00;52513.31;5054751;28;21219;-73
2020/12/02 02:52:14;;;;;;;48.03;33.80;;;;;;;-144.99;100.00;52519.44;5059240;28;20714;-72
2020/12/02 02:54:40;;;;;;;55.60;32.77;;;;;;;-144.99;100.00;52562.25;5049168;28;20655;-72
2020/12/02 02:57:06;;;;;;;42.13;32.33;;;;;;;-144.99;100.00;52456.25;5049395;28;20753;-72
2020/12/02 02:59:33;;;;;;;50.63;34.13;;;;;;;-144.99;100.00;52472.56;5059708;28;20628;-71
2020/12/02 03:01:59;;;;;;;45.57;31.30;;;;;;;-144.99;100.00;52464.41;5052893;28;20620;-70
2020/12/02 03:04:25;;;;;;;48.07;33.03;;;;;;;-144.99;100.00;52482.75;5056317;28;20624;-71
2020/12/02 03:06:52;;;;;;;63.07;38.33;;;;;;;-144.99;100.00;52523.50;5049368;28;20727;-71
2020/12/02 03:09:18;;;;;;;52.13;34.67;;;;;;;-144.99;100.00;52501.09;5056665;28;20705;-71
2020/12/02 03:11:44;;;;;;;55.50;35.23;;;;;;;-144.99;100.00;52513.31;5050395;28;20663;-71
2020/12/02 03:14:11;;;;;;;49.43;33.90;;;;;;;-144.99;100.00;52525.56;5050302;28;20666;-71
2020/12/02 03:16:43;;;;;;;48.60;32.53;;;;;;;-144.99;100.00;52505.16;5054253;28;20986;-72
2020/12/02 03:19:15;;;;;;;51.00;31.53;;;;;;;-144.99;100.00;52517.41;5053652;23;20692;-72
2020/12/02 03:21:41;;;;;;;44.70;34.10;;;;;;;-144.99;100.00;52509.25;5050907;28;20615;-72
2020/12/02 03:24:09;;;;;;;50.93;34.17;;;;;;;-144.99;100.00;52537.78;5050821;28;21002;-72
2020/12/02 03:26:36;;;;;;;45.87;30.90;;;;;;;-144.99;100.00;52513.31;5044787;28;20665;-72
2020/12/02 03:29:03;;;;;;;54.70;36.37;;;;;;;-144.99;100.00;52478.66;5043902;28;20652;-72
2020/12/02 03:31:29;;;;;;;44.67;32.53;;;;;;;-144.99;100.00;52505.16;5050087;28;20678;-72
2020/12/02 03:33:57;;;;;;;49.50;32.50;;;;;;;-144.99;100.00;52533.69;5050337;28;21012;-72
2020/12/02 03:36:23;;;;;;;55.40;35.23;;;;;;;-144.99;100.00;52497.00;5049462;28;20648;-72
2020/12/02 03:38:50;;;;;;;42.40;32.00;;;;;;;-144.99;100.00;52511.28;5049634;28;20774;-72
2020/12/02 03:41:18;;;;;;;41.83;32.07;;;;;;;-144.99;100.00;52509.25;5049925;28;20647;-72
2020/12/02 03:43:45;;;;;;;42.83;31.30;;;;;;;-144.99;100.00;52486.81;5050339;28;20639;-72
2020/12/02 03:46:11;;;;;;;57.33;37.07;;;;;;;-144.99;100.00;52525.56;5049128;28;20655;-72
2020/12/02 03:48:37;;;;;;;46.47;31.80;;;;;;;-144.99;100.00;52515.34;5048496;28;21287;-72
2020/12/02 03:51:04;;;;;;;49.70;30.53;;;;;;;-144.99;100.00;52521.47;5048612;28;20670;-72
2020/12/02 03:53:30;;;;;;;41.73;28.50;;;;;;;-144.99;100.00;52529.63;5049578;28;20604;-72
2020/12/02 03:55:57;;;;;;;43.60;31.73;;;;;;;-144.99;100.00;52492.94;5048632;28;20632;-73
2020/12/02 03:58:23;;;;;;;51.77;34.50;;;;;;;-144.99;100.00;52554.09;5047043;28;20713;-73
2020/12/02 04:00:49;;;;;;;54.33;36.70;;;;;;;-144.99;100.00;52517.41;5047859;28;20990;-73
2020/12/02 04:03:15;;;;;;;49.80;35.47;;;;;;;-144.99;100.00;52525.56;5049298;28;20647;-73
2020/12/02 04:05:41;;;;;;;57.07;38.13;;;;;;;-144.99;100.00;52515.34;5048240;28;20663;-73
2020/12/02 04:08:08;;;;;;;49.13;33.00;;;;;;;-144.99;100.00;52509.25;5048277;28;20725;-73
2020/12/02 04:10:35;;;;;;;53.43;37.13;;;;;;;-144.99;100.00;52578.53;5047087;28;20662;-73
2020/12/02 04:13:01;;;;;;;49.87;33.40;;;;;;;-144.99;100.00;52521.47;5049128;28;20628;-73
2020/12/02 04:15:28;;;;;;;60.50;36.30;;;;;;;-144.99;100.00;52513.31;5048506;28;20679;-73
2020/12/02 04:17:54;;;;;;;56.33;37.73;;;;;;;-144.99;100.00;52523.50;5049090;28;20691;-73
2020/12/02 04:20:21;;;;;;;45.97;33.93;;;;;;;-144.99;100.00;52488.84;5046451;28;20663;-73
2020/12/02 04:22:48;;;;;;;51.23;33.53;;;;;;;-144.99;100.00;52558.16;5048983;28;20678;-74
2020/12/02 04:25:16;;;;;;;47.97;32.00;;;;;;;-144.99;100.00;52529.63;5047529;28;20659;-73
2020/12/02 04:27:42;;;;;;;57.20;38.27;;;;;;;-144.99;100.00;52556.13;5048470;28;20660;-72
2020/12/02 04:30:09;;;;;;;50.07;35.60;;;;;;;-144.99;100.00;52550.00;5048141;28;20652;-72
2020/12/02 04:32:36;;;;;;;49.70;31.23;;;;;;;-144.99;100.00;52562.25;5048483;28;20705;-72
2020/12/02 04:35:03;;;;;;;55.17;34.50;;;;;;;-144.99;100.00;52515.34;5048973;28;21032;-72
2020/12/02 04:37:30;;;;;;;47.53;35.47;;;;;;;-144.99;100.00;52488.84;5049397;28;20620;-71
2020/12/02 04:39:57;;;;;;;53.00;36.87;;;;;;;-144.99;100.00;52523.50;5049093;28;20627;-72
2020/12/02 04:42:28;;;;;;;65.63;36.73;;;;;;;-144.99;100.00;52537.78;5052406;28;20683;-73
2020/12/02 04:44:54;;;;;;;49.83;33.20;;;;;;;-144.99;100.00;52545.94;5048785;28;20643;-73
2020/12/02 04:47:29;;;;;;;52.87;37.40;;;;;;;-144.99;100.00;52541.84;5048994;28;20749;-73
2020/12/02 04:49:55;;;;;;;62.17;42.60;;;;;;;-144.99;100.00;52517.41;5037346;28;20703;-73
2020/12/02 04:52:22;;;;;;;59.40;35.27;;;;;;;-144.99;100.00;52537.78;5049065;28;20689;-72
2020/12/02 04:54:49;;;;;;;53.57;36.17;;;;;;;-144.99;100.00;52521.47;5049225;28;20608;-73
2020/12/02 04:57:16;;;;;;;61.10;36.33;;;;;;;-144.99;100.00;52509.25;5049151;28;21250;-73
2020/12/02 04:59:44;;;;;;;53.40;35.87;;;;;;;-144.99;100.00;52501.09;5048601;28;20709;-73
2020/12/02 05:02:24;;;;;;;47.97;31.83;;;;;;;-144.99;100.00;52521.47;5054393;28;20666;-73
2020/12/02 05:04:54;;;;;;;55.77;32.90;;;;;;;-144.99;100.00;52537.78;5049288;28;20622;-73
2020/12/02 05:07:21;;;;;;;48.97;35.00;;;;;;;-144.99;100.00;52478.66;5046879;28;21064;-73
2020/12/02 05:09:57;;;;;;;51.53;33.57;;;;;;;-144.99;100.00;52509.25;5049126;28;20678;-73
2020/12/02 05:12:25;;;;;;;56.27;37.70;;;;;;;-144.99;100.00;52501.09;5047041;28;20675;-76
2020/12/02 05:14:52;;;;;;;49.57;34.27;;;;;;;-144.99;100.00;52537.78;5042706;28;20618;-74
2020/12/02 05:17:24;;;;;;;53.07;37.13;;;;;;;-144.99;100.00;52586.69;5046817;28;20729;-72
2020/12/02 05:20:08;;;;;;;44.40;32.40;;;;;;;-144.99;100.00;52513.31;5048275;28;20685;-76
2020/12/02 05:22:36;;;;;;;60.93;30.50;;;;;;;-144.99;100.00;52513.31;5046737;28;20631;-74
2020/12/02 05:25:04;;;;;;;50.23;35.03;;;;;;;-144.99;100.00;52505.16;5049719;28;20620;-74
2020/12/02 05:27:34;;;;;;;59.27;37.00;;;;;;;-144.99;100.00;52499.06;5050698;28;20698;-74
2020/12/02 05:30:20;;;;;;;45.27;30.47;;;;;;;-144.99;100.00;52525.56;5051691;28;20677;-74
2020/12/02 05:33:04;;;;;;;54.23;31.57;;;;;;;-144.99;100.00;52527.59;5051111;28;20623;-74
2020/12/02 05:35:32;;;;;;;63.13;38.73;;;;;;;-144.99;100.00;52537.78;5029765;28;20670;-74
2020/12/02 05:37:59;;;;;;;57.37;37.97;;;;;;;-144.99;100.00;52521.47;5050453;28;21269;-75
2020/12/02 05:40:28;;;;;;;44.70;32.30;;;;;;;-144.99;100.00;52550.00;5051559;28;20945;-75
2020/12/02 05:42:59;;;;;;;39.73;30.10;;;;;;;-144.99;100.00;52509.25;5051851;28;20685;-73
2020/12/02 05:45:34;;;;;;;47.10;31.47;;;;;;;-144.99;100.00;52533.69;5048661;28;20647;-74
2020/12/02 05:48:01;;;;;;;42.87;29.77;;;;;;;-144.99;100.00;52529.63;5050955;28;20659;-77
2020/12/02 05:50:29;;;;;;;44.43;32.53;;;;;;;-144.99;100.00;52513.31;5048766;28;21050;-77
2020/12/02 05:53:03;;;;;;;49.33;32.50;;;;;;;-144.99;100.00;52505.16;5051480;28;21160;-76
2020/12/02 05:55:32;;;;;;;50.43;36.10;;;;;;;-144.99;100.00;52476.63;5050373;28;21053;-77
2020/12/02 05:58:06;;;;;;;46.03;30.33;;;;;;;-144.99;100.00;52488.84;5051706;28;20694;-77
2020/12/02 06:00:34;;;;;;;46.47;33.07;;;;;;;-144.99;100.00;52509.25;5048286;28;21165;-78
2020/12/02 06:03:00;;;;;;;52.93;33.37;;;;;;;-144.99;100.00;52550.00;5050512;28;21202;-77
2020/12/02 06:05:28;;;;;;;49.67;31.73;;;;;;;-144.99;100.00;52513.31;4351430;28;10000731;-75
2020/12/02 06:08:00;;;;;;;49.37;35.00;;;;;;;-144.99;100.00;52533.69;4697440;28;9999799;-75
2020/12/02 06:10:32;;;;;;;51.30;32.23;;;;;;;-144.99;100.00;52499.06;5045389;28;20469;-75
2020/12/02 06:12:58;;;;;;;61.27;34.57;;;;;;;-144.99;100.00;52554.09;5047572;28;21023;-75
2020/12/02 06:15:26;;;;;;;51.83;33.47;;;;;;;-144.99;100.00;52472.56;5046854;28;21194;-75
2020/12/02 06:18:13;;;;;;;50.77;36.47;;;;;;;-144.99;100.00;52529.63;5047935;28;20755;-75
2020/12/02 06:20:44;;;;;;;55.33;35.33;;;;;;;-144.99;100.00;52541.84;5044627;28;20641;-75
2020/12/02 06:23:10;;;;;;;41.10;29.43;;;;;;;-144.99;100.00;52525.56;5045339;28;20704;-75
2020/12/02 06:25:48;;;;;;;47.57;31.87;;;;;;;-144.99;100.00;52499.06;5045782;28;21061;-75
2020/12/02 06:28:24;;;;;;;55.83;33.43;;;;;;;-144.99;100.00;52492.94;5047074;28;20663;-75
2020/12/02 06:30:56;;;;;;;54.43;35.30;;;;;;;-144.99;100.00;52525.56;5042530;28;20663;-75
2020/12/02 06:33:31;;;;;;;70.80;37.77;;;;;;;-144.99;100.00;52541.84;5045776;28;20663;-74
2020/12/02 06:36:11;;;;;;;50.40;35.70;;;;;;;-144.99;100.00;52497.00;5042636;28;20802;-74
2020/12/02 06:38:37;;;;;;;52.57;33.43;;;;;;;-144.99;100.00;52499.06;5043188;28;20717;-75
2020/12/02 06:41:29;;;;;;;53.57;35.57;;;;;;;-144.99;100.00;52521.47;5046483;28;21022;-74
2020/12/02 06:44:00;;;;;;;48.97;32.93;;;;;;;-144.99;100.00;52511.28;5043749;28;20686;-75
2020/12/02 06:46:54;;;;;;;49.40;33.10;;;;;;;-144.99;100.00;52525.56;5047514;28;20612;-74
2020/12/02 06:49:22;;;;;;;45.40;30.03;;;;;;;-144.99;100.00;52509.25;5051996;28;20836;-75
2020/12/02 06:51:55;;;;;;;47.90;34.10;;;;;;;-144.99;100.00;52501.09;5068361;28;20604;-75
2020/12/02 06:54:21;;;;;;;51.27;33.90;;;;;;;-144.99;100.00;52529.63;5064079;28;20626;-76
2020/12/02 06:56:47;;;;;;;48.87;32.80;;;;;;;-144.99;100.00;52531.66;5047097;28;20689;-76
2020/12/02 06:59:14;;;;;;;52.40;33.13;;;;;;;-144.99;100.00;52507.19;5044619;28;20659;-77
2020/12/02 07:01:43;;;;;;;46.63;31.10;;;;;;;-144.99;100.00;52537.78;5046682;28;20659;-75
2020/12/02 07:04:20;;;;;;;50.53;32.87;;;;;;;-144.99;100.00;52537.78;5047117;28;20612;-75
2020/12/02 07:06:57;;;;;;;56.37;32.70;;;;;;;-144.99;100.00;52509.25;5045225;28;20639;-76
2020/12/02 07:09:23;;;;;;;50.33;37.17;;;;;;;-144.99;100.00;52501.09;5046798;28;20679;-75
2020/12/02 07:11:55;;;;;;;56.20;35.70;;;;;;;-144.99;100.00;52525.56;5045219;28;20612;-75
2020/12/02 07:14:27;;;;;;;51.63;32.57;;;;;;;-144.99;100.00;52550.00;5046002;28;20689;-75
2020/12/02 07:16:58;;;;;;;45.73;31.27;;;;;;;-144.99;100.00;52501.09;5044397;28;20971;-74
2020/12/02 07:19:27;;;;;;;54.27;33.53;;;;;;;-144.99;100.00;52564.28;5044763;28;20740;-76
2020/12/02 07:21:58;;;;;;;47.03;33.43;;;;;;;-144.99;100.00;52505.16;5045538;28;20735;-75
2020/12/02 07:24:28;;;;;;;59.47;37.37;;;;;;;-144.99;100.00;52560.19;5045863;28;21065;-75
2020/12/02 07:26:55;;;;;;;52.47;35.33;;;;;;;-144.99;100.00;52537.78;5042659;28;20670;-74
2020/12/02 07:29:24;;;;;;;49.03;35.93;;;;;;;-144.99;100.00;52529.63;5044916;28;21238;-76
2020/12/02 07:31:58;;;;;;;51.63;36.47;;;;;;;-144.99;100.00;52488.84;5046448;28;20655;-76
2020/12/02 07:34:25;;;;;;;49.70;33.40;;;;;;;-144.99;100.00;52529.63;5045621;28;21121;-76
2020/12/02 07:36:59;;;;;;;58.90;37.70;;;;;;;-144.99;100.00;52497.00;5046563;28;20627;-75
2020/12/02 07:39:27;;;;;;;50.20;34.03;;;;;;;-144.99;100.00;52566.31;5043990;28;21076;-75
2020/12/02 07:42:01;;;;;;;40.33;31.57;;;;;;;-144.99;100.00;52537.78;5046414;28;21241;-76
2020/12/02 07:44:30;;;;;;;42.70;30.13;;;;;;;-144.99;100.00;52537.78;5044901;28;20636;-76
2020/12/02 07:47:01;;;;;;;43.53;29.60;;;;;;;-144.99;100.00;52497.00;5046496;28;20701;-75
2020/12/02 07:49:27;;;;;;;44.93;31.10;;;;;;;-144.99;100.00;52513.31;5044449;28;20659;-75
2020/12/02 07:52:06;;;;;;;44.90;31.23;;;;;;;-144.99;100.00;52509.25;5046169;28;21295;-76
2020/12/02 07:54:32;;;;;;;50.40;35.87;;;;;;;-144.99;100.00;52509.25;5044805;28;20616;-75
2020/12/02 07:57:00;;;;;;;42.10;30.43;;;;;;;-144.99;100.00;52480.72;5045132;28;20678;-74
2020/12/02 07:59:29;;;;;;;48.00;34.53;;;;;;;-144.99;100.00;52513.31;5044790;28;20644;-77
2020/12/02 08:02:18;;;;;;;45.73;30.07;;;;;;;-144.99;100.00;52576.50;5044357;28;20624;-76
2020/12/02 08:05:16;;;;;;;52.80;35.70;;;;;;;-144.99;100.00;52533.69;5040818;28;20970;-76
2020/12/02 08:07:57;;;;;;;39.30;29.23;;;;;;;-144.99;100.00;52539.81;5021875;28;20778;-77
2020/12/02 08:10:27;;;;;;;36.73;26.23;;;;;;;-144.99;100.00;52517.41;5045969;28;20643;-75
2020/12/02 08:12:53;;;;;;;42.37;30.50;;;;;;;-144.99;100.00;52521.47;5041754;28;20685;-76
2020/12/02 08:15:20;;;;;;;39.57;28.20;;;;;;;-144.99;100.00;52505.16;5045105;28;20636;-75
2020/12/02 08:18:13;;;;;;;47.53;31.40;;;;;;;-144.99;100.00;52533.69;5045247;28;21226;-75
2020/12/02 08:20:40;;;;;;;42.00;29.07;;;;;;;-144.99;100.00;52505.16;5044327;28;20620;-75
2020/12/02 08:23:10;;;;;;;37.27;26.47;;;;;;;-144.99;100.00;52509.25;5045536;28;20631;-75
2020/12/02 08:25:46;;;;;;;46.13;30.87;;;;;;;-144.99;100.00;52545.94;5042765;28;21174;-76
2020/12/02 08:28:21;;;;;;;47.07;31.93;;;;;;;-144.99;100.00;52494.97;5045413;28;20690;-74
2020/12/02 08:30:59;;;;;;;48.70;33.47;;;;;;;-144.99;100.00;52513.31;5044177;28;20659;-75
2020/12/02 08:33:25;;;;;;;46.40;33.33;;;;;;;-144.99;100.00;52456.25;5040481;28;20691;-76
2020/12/02 08:35:52;;;;;;;44.67;31.03;;;;;;;-144.99;100.00;52527.59;5045479;28;21040;-75
2020/12/02 08:38:26;;;;;;;42.13;29.47;;;;;;;-144.99;100.00;52509.25;5045495;28;20651;-74
2020/12/02 08:40:55;;;;;;;40.00;27.47;;;;;;;-144.99;100.00;52482.75;5041494;28;20648;-75
2020/12/02 08:43:33;;;;;;;45.50;29.97;;;;;;;-144.99;100.00;52517.41;5040440;28;20697;-77
2020/12/02 08:46:07;;;;;;;43.57;30.87;;;;;;;-144.99;100.00;52517.41;5045955;28;20608;-76
2020/12/02 08:48:35;;;;;;;42.70;30.90;;;;;;;-144.99;100.00;52501.09;5045170;28;20766;-76
2020/12/02 08:51:01;;;;;;;44.63;29.63;;;;;;;-144.99;100.00;52492.94;5045271;28;20652;-76
2020/12/02 08:53:29;;;;;;;37.07;25.73;;;;;;;-144.99;100.00;52521.47;5044206;28;21221;-76
2020/12/02 08:55:57;;;;;;;42.53;27.37;;;;;;;-144.99;100.00;52476.63;5043899;28;21017;-77
2020/12/02 08:58:24;;;;;;;43.07;30.80;;;;;;;-144.99;100.00;52533.69;5050179;28;20643;-77
2020/12/02 09:00:50;;;;;;;40.33;28.83;;;;;;;-144.99;100.00;52539.81;5049341;28;20623;-75
2020/12/02 09:03:17;;;;;;;39.87;28.77;;;;;;;-144.99;100.00;52507.19;5049760;28;20627;-74
2020/12/02 09:05:43;;;;;;;38.83;29.60;;;;;;;-144.99;100.00;52507.19;5047240;28;20703;-75
2020/12/02 09:08:10;;;;;;;45.30;31.23;;;;;;;-144.99;100.00;52521.47;5046234;28;20681;-77
2020/12/02 09:10:36;;;;;;;46.80;29.80;;;;;;;-144.99;100.00;52527.59;5047741;28;21289;-78
2020/12/02 09:13:03;;;;;;;44.93;29.90;;;;;;;-144.99;100.00;52541.84;5049022;28;20666;-76
2020/12/02 09:15:29;;;;;;;54.37;34.17;;;;;;;-144.99;100.00;52501.09;5047235;28;20979;-74
2020/12/02 09:17:56;;;;;;;43.47;29.80;;;;;;;-144.99;100.00;52474.59;5048787;28;20667;-76
2020/12/02 09:20:22;;;;;;;45.87;32.20;;;;;;;-144.99;100.00;52492.94;5078803;22;21279;-75
2020/12/02 09:22:49;;;;;;;43.23;30.90;;;;;;;-144.99;100.00;52484.78;5070029;28;20646;-75
2020/12/02 09:25:15;;;;;;;52.33;37.70;;;;;;;-144.99;100.00;52533.69;5068854;28;21078;-74
2020/12/02 09:27:41;;;;;;;53.97;40.53;;;;;;;-144.99;100.00;52476.63;5064649;28;20691;-74
2020/12/02 09:30:09;;;;;;;42.47;29.30;;;;;;;-144.99;100.00;52509.25;5050885;28;20718;-75
2020/12/02 09:32:36;;;;;;;47.57;29.97;;;;;;;-144.99;100.00;52517.41;5047852;28;20634;-77
2020/12/02 09:35:05;;;;;;;40.17;27.27;;;;;;;-144.99;100.00;52505.16;5048491;28;21166;-76
2020/12/02 09:37:31;;;;;;;43.50;28.47;;;;;;;-144.99;100.00;52492.94;5046214;28;21228;-76
2020/12/02 09:39:59;;;;;;;50.40;27.50;;;;;;;-144.99;100.00;52474.59;5047903;28;20735;-76
2020/12/02 09:42:48;;;;;;;43.10;29.10;;;;;;;-144.99;100.00;52513.31;5047159;28;20635;-75
2020/12/02 09:45:28;;;;;;;44.73;29.30;;;;;;;-144.99;100.00;52501.09;5007216;28;21163;-75
2020/12/02 09:47:55;;;;;;;47.73;32.13;;;;;;;-144.99;100.00;52525.56;5043573;28;20652;-75
2020/12/02 09:50:22;;;;;;;43.90;31.23;;;;;;;-144.99;100.00;52552.03;5048780;28;21302;-74
2020/12/02 09:52:50;;;;;;;59.07;36.80;;;;;;;-144.99;100.00;52476.63;5048280;28;20974;-76
2020/12/02 09:55:20;;;;;;;42.77;29.57;;;;;;;-144.99;100.00;52537.78;5041353;28;20621;-76
2020/12/02 09:57:46;;;;;;;37.70;27.83;;;;;;;-144.99;100.00;52517.41;5048366;28;20632;-76
2020/12/02 10:00:14;;;;;;;35.27;26.20;;;;;;;-144.99;100.00;52472.56;5047972;28;20647;-75
2020/12/02 10:03:08;;;;;;;39.50;27.60;;;;;;;-144.99;100.00;52517.41;5038381;28;20639;-75
2020/12/02 10:05:52;;;;;;;47.63;28.53;;;;;;;-144.99;100.00;52529.63;5048646;28;21224;-71
2020/12/02 10:08:29;;;;;;;37.83;26.87;;;;;;;-144.99;100.00;52501.09;5044955;28;21287;-70
2020/12/02 10:11:01;;;;;;;38.17;27.53;;;;;;;-144.99;100.00;52537.78;5049144;28;20655;-76
2020/12/02 10:14:01;;;;;;;45.47;27.37;;;;;;;-144.99;100.00;52545.94;5053091;28;20676;-76
2020/12/02 10:16:37;;;;;;;34.50;26.93;;;;;;;-144.99;99.26;52529.63;5034847;28;20620;-75
2020/12/02 10:19:27;;;;;;;33.50;24.03;;;;;;;-144.99;98.95;52484.78;5049585;28;20717;-77
2020/12/02 10:22:21;;;;;;;40.80;26.90;;;;;;;-144.99;98.36;52507.19;5045971;28;20662;-75
2020/12/02 10:25:02;;;;;;;37.10;24.63;;;;;;;-144.99;98.11;52511.28;5048325;28;20628;-76
2020/12/02 10:27:51;;;;;;;37.37;26.30;;;;;;;-144.99;98.11;52484.78;5045875;28;20741;-77
2020/12/02 10:30:20;;;;;;;37.07;26.00;;;;;;;-144.99;97.58;52517.41;5045433;28;20655;-76
2020/12/02 10:33:14;;;;;;;37.63;25.07;;;;;;;-144.99;96.95;52474.59;5048282;28;20624;-76
2020/12/02 10:35:45;;;;;;;41.03;24.20;;;;;;;-144.99;96.43;52513.31;5041194;28;20639;-76
2020/12/02 10:38:15;;;;;;;34.30;25.40;;;;;;;-144.99;95.42;52505.16;5047919;28;20624;-77
2020/12/02 10:40:53;;;;;;;33.43;23.67;;;;;;;-144.99;95.73;52501.09;5046692;28;20935;-76
2020/12/02 10:43:26;;;;;;;37.57;24.67;;;;;;;-144.99;95.25;52519.44;5043416;28;20631;-75
2020/12/02 10:45:57;;;;;;;35.37;23.77;;;;;;;-144.99;95.27;52511.28;5044792;28;20631;-75
2020/12/02 10:48:41;;;;;;;37.47;24.13;;;;;;;-144.99;94.86;52501.09;5047260;28;20717;-76
2020/12/02 10:51:11;;;;;;;32.67;22.03;;;;;;;-144.99;94.48;52562.25;5045966;28;20725;-76
2020/12/02 10:53:37;;;;;;;37.20;26.10;;;;;;;-144.99;94.48;52529.63;5046946;28;20631;-76
2020/12/02 10:56:03;;;;;;;36.87;24.50;;;;;;;-144.99;94.31;52513.31;5046008;28;20612;-76
2020/12/02 10:58:30;;;;;;;36.43;29.37;;;;;;;-144.99;94.48;52511.28;5047600;28;20601;-75
2020/12/02 11:00:59;;;;;;;33.33;21.97;;;;;;;-144.99;93.89;52488.84;5046356;28;20782;-75
2020/12/02 11:03:31;;;;;;;33.83;26.63;;;;;;;-144.99;93.99;52472.56;5047138;28;20615;-75
2020/12/02 11:06:38;;;;;;;34.07;24.23;;;;;;;-144.99;93.44;52476.63;5035600;28;20735;-77
2020/12/02 11:09:24;;;;;;;33.90;23.67;;;;;;;-144.99;93.49;52517.41;4963996;28;20675;-76
2020/12/02 11:12:13;;;;;;;31.20;21.80;;;;;;;-144.99;93.13;52521.47;4967731;28;20666;-76